Airfield :
LOGIN :

Register | Disclaimer

   EN    FR    IT 

 










Legend :    VFR   Marginal VFR   IFR   Intensive IFR   Very Intensive IFR
Visi :
Ceiling :
>= 8 km
>= 3000ft
5 to 8 km
1000 to 3000 ft
1500m to 5 km
500 to 1000 ft
800 to 1500m
200 to 500 ft
< 800m
< 200 ft
Symbols :   Thunderstorms  Fog  Heavy snow  Heavy precipitations  Wind > 20 kt
SIGMETs :     Misc.  Thunderstorms  Icing  Turbulence  Mountain Waves  Volcanic Ashes







- Airport Elevation : 0 ft


ENSL - Sleipner A Platform

CURRENT METAR :
  • 170050Z AUTO 26019KT 9999NDV FEW020/// 15/11 Q1006 W14/S4

EXPIRED METARs :
  • 170020Z AUTO 25020KT 9999NDV FEW079/// 15/11 Q1006 W14/S4
  • 162350Z AUTO 26021KT 9999NDV FEW020/// 15/10 Q1006 W14/S4
  • 162320Z AUTO 25020KT 9999NDV BKN067/// 15/10 Q1006 W14/S4
  • 162250Z AUTO 24020KT 9999NDV FEW019/// 15/11 Q1006 W14/S4
  • 162220Z AUTO 24020KT 9999NDV SCT016/// BKN084/// 15/11 Q1005 W14/S4

Expired Forecast.
No reported NOTAMs for that airfield.



MET'MAP, your aeronautical weather chart ! - Copyright ORBIFLY December 2007 - Disclaimer

ORBIFLY MET'MAP TEAM :

Programming & Development : Alexandra Zaïnal
Concept & Development : Baudouin d'Aumeries
Co-Development & Prog : Marc-Olivier Méhu
Technical & hardware support : Manuel Goepfert

Contact : metmap@orbifly.com




SOURCES & CREDITS :

   NOAA